sensor_id;sensor_type;location;lat;lon;timestamp;P1;durP1;ratioP1;P2;durP2;ratioP2
4309;SDS011;2168;53.576;9.980;2023-05-16T00:02:14;0.40;;;0.40;;
4309;SDS011;2168;53.576;9.980;2023-05-16T00:04:40;0.40;;;0.40;;
4309;SDS011;2168;53.576;9.980;2023-05-16T00:07:05;0.40;;;0.40;;
4309;SDS011;2168;53.576;9.980;2023-05-16T00:09:30;0.40;;;0.40;;
4309;SDS011;2168;53.576;9.980;2023-05-16T00:11:55;0.30;;;0.30;;
4309;SDS011;2168;53.576;9.980;2023-05-16T00:14:21;0.40;;;0.40;;
4309;SDS011;2168;53.576;9.980;2023-05-16T00:16:46;0.40;;;0.40;;
4309;SDS011;2168;53.576;9.980;2023-05-16T00:19:11;0.50;;;0.50;;
4309;SDS011;2168;53.576;9.980;2023-05-16T00:21:37;0.40;;;0.40;;
4309;SDS011;2168;53.576;9.980;2023-05-16T00:24:03;0.47;;;0.47;;
4309;SDS011;2168;53.576;9.980;2023-05-16T00:26:28;0.40;;;0.40;;
4309;SDS011;2168;53.576;9.980;2023-05-16T00:28:53;0.33;;;0.33;;
4309;SDS011;2168;53.576;9.980;2023-05-16T00:31:19;0.50;;;0.50;;
4309;SDS011;2168;53.576;9.980;2023-05-16T00:33:44;0.40;;;0.40;;
4309;SDS011;2168;53.576;9.980;2023-05-16T00:36:10;0.47;;;0.47;;
4309;SDS011;2168;53.576;9.980;2023-05-16T00:38:35;0.40;;;0.40;;
4309;SDS011;2168;53.576;9.980;2023-05-16T00:41:01;0.50;;;0.50;;
4309;SDS011;2168;53.576;9.980;2023-05-16T00:43:26;0.40;;;0.40;;
4309;SDS011;2168;53.576;9.980;2023-05-16T00:45:51;0.40;;;0.40;;
4309;SDS011;2168;53.576;9.980;2023-05-16T00:48:17;0.30;;;0.30;;
4309;SDS011;2168;53.576;9.980;2023-05-16T00:50:42;0.50;;;0.50;;
4309;SDS011;2168;53.576;9.980;2023-05-16T00:53:07;0.47;;;0.47;;
4309;SDS011;2168;53.576;9.980;2023-05-16T00:55:33;0.50;;;0.50;;
4309;SDS011;2168;53.576;9.980;2023-05-16T00:57:58;0.40;;;0.40;;
4309;SDS011;2168;53.576;9.980;2023-05-16T01:00:23;0.40;;;0.40;;
4309;SDS011;2168;53.576;9.980;2023-05-16T01:02:49;0.50;;;0.50;;
4309;SDS011;2168;53.576;9.980;2023-05-16T01:05:17;0.40;;;0.40;;
4309;SDS011;2168;53.576;9.980;2023-05-16T01:07:42;0.50;;;0.50;;
4309;SDS011;2168;53.576;9.980;2023-05-16T01:10:08;0.50;;;0.50;;
4309;SDS011;2168;53.576;9.980;2023-05-16T01:13:16;0.50;;;0.50;;
4309;SDS011;2168;53.576;9.980;2023-05-16T01:15:25;0.50;;;0.50;;
4309;SDS011;2168;53.576;9.980;2023-05-16T01:17:54;0.50;;;0.50;;
4309;SDS011;2168;53.576;9.980;2023-05-16T01:27:49;0.40;;;0.40;;
4309;SDS011;2168;53.576;9.980;2023-05-16T01:30:17;0.40;;;0.40;;
4309;SDS011;2168;53.576;9.980;2023-05-16T01:32:42;0.33;;;0.33;;
4309;SDS011;2168;53.576;9.980;2023-05-16T01:35:08;0.50;;;0.50;;
4309;SDS011;2168;53.576;9.980;2023-05-16T01:37:35;0.50;;;0.50;;
4309;SDS011;2168;53.576;9.980;2023-05-16T01:42:32;0.40;;;0.40;;
4309;SDS011;2168;53.576;9.980;2023-05-16T01:44:59;0.40;;;0.40;;
4309;SDS011;2168;53.576;9.980;2023-05-16T01:47:28;0.40;;;0.40;;
4309;SDS011;2168;53.576;9.980;2023-05-16T01:52:21;0.40;;;0.40;;
4309;SDS011;2168;53.576;9.980;2023-05-16T01:54:47;0.30;;;0.30;;
4309;SDS011;2168;53.576;9.980;2023-05-16T01:57:13;0.33;;;0.33;;
4309;SDS011;2168;53.576;9.980;2023-05-16T01:59:40;0.47;;;0.47;;
4309;SDS011;2168;53.576;9.980;2023-05-16T02:02:06;0.50;;;0.50;;
4309;SDS011;2168;53.576;9.980;2023-05-16T02:04:32;0.40;;;0.40;;
4309;SDS011;2168;53.576;9.980;2023-05-16T02:06:57;0.33;;;0.33;;
4309;SDS011;2168;53.576;9.980;2023-05-16T02:09:24;0.40;;;0.40;;
4309;SDS011;2168;53.576;9.980;2023-05-16T02:11:50;0.33;;;0.33;;
4309;SDS011;2168;53.576;9.980;2023-05-16T02:14:15;0.40;;;0.40;;
4309;SDS011;2168;53.576;9.980;2023-05-16T02:16:40;0.40;;;0.40;;
4309;SDS011;2168;53.576;9.980;2023-05-16T02:19:05;0.40;;;0.40;;
4309;SDS011;2168;53.576;9.980;2023-05-16T02:21:30;0.30;;;0.30;;
4309;SDS011;2168;53.576;9.980;2023-05-16T02:23:55;0.30;;;0.30;;
4309;SDS011;2168;53.576;9.980;2023-05-16T02:26:21;0.50;;;0.50;;
4309;SDS011;2168;53.576;9.980;2023-05-16T02:28:46;0.50;;;0.50;;
4309;SDS011;2168;53.576;9.980;2023-05-16T02:31:24;0.40;;;0.40;;
4309;SDS011;2168;53.576;9.980;2023-05-16T02:33:49;0.40;;;0.40;;
4309;SDS011;2168;53.576;9.980;2023-05-16T02:36:14;0.40;;;0.40;;
4309;SDS011;2168;53.576;9.980;2023-05-16T02:38:40;0.40;;;0.40;;
4309;SDS011;2168;53.576;9.980;2023-05-16T02:41:05;0.40;;;0.40;;
4309;SDS011;2168;53.576;9.980;2023-05-16T02:43:30;0.40;;;0.40;;
4309;SDS011;2168;53.576;9.980;2023-05-16T02:45:56;0.40;;;0.40;;
4309;SDS011;2168;53.576;9.980;2023-05-16T02:48:21;0.40;;;0.40;;
4309;SDS011;2168;53.576;9.980;2023-05-16T02:50:46;0.40;;;0.40;;
4309;SDS011;2168;53.576;9.980;2023-05-16T02:53:11;0.40;;;0.40;;
4309;SDS011;2168;53.576;9.980;2023-05-16T02:55:37;0.30;;;0.30;;
4309;SDS011;2168;53.576;9.980;2023-05-16T02:58:02;0.40;;;0.40;;
4309;SDS011;2168;53.576;9.980;2023-05-16T03:00:27;0.40;;;0.40;;
4309;SDS011;2168;53.576;9.980;2023-05-16T03:02:53;0.40;;;0.40;;
4309;SDS011;2168;53.576;9.980;2023-05-16T03:05:18;0.37;;;0.37;;
4309;SDS011;2168;53.576;9.980;2023-05-16T03:07:43;0.47;;;0.47;;
4309;SDS011;2168;53.576;9.980;2023-05-16T03:10:09;0.40;;;0.40;;
4309;SDS011;2168;53.576;9.980;2023-05-16T03:12:34;0.50;;;0.50;;
4309;SDS011;2168;53.576;9.980;2023-05-16T03:15:00;0.43;;;0.43;;
4309;SDS011;2168;53.576;9.980;2023-05-16T03:17:25;0.43;;;0.43;;
4309;SDS011;2168;53.576;9.980;2023-05-16T03:19:52;0.50;;;0.50;;
4309;SDS011;2168;53.576;9.980;2023-05-16T03:22:17;0.40;;;0.40;;
4309;SDS011;2168;53.576;9.980;2023-05-16T03:24:42;0.50;;;0.50;;
4309;SDS011;2168;53.576;9.980;2023-05-16T03:27:08;0.50;;;0.50;;
4309;SDS011;2168;53.576;9.980;2023-05-16T03:29:33;0.50;;;0.50;;
4309;SDS011;2168;53.576;9.980;2023-05-16T03:31:59;0.40;;;0.40;;
4309;SDS011;2168;53.576;9.980;2023-05-16T03:34:24;0.30;;;0.30;;
4309;SDS011;2168;53.576;9.980;2023-05-16T03:36:50;0.43;;;0.43;;
4309;SDS011;2168;53.576;9.980;2023-05-16T03:39:16;0.50;;;0.50;;
4309;SDS011;2168;53.576;9.980;2023-05-16T03:41:41;0.40;;;0.40;;
4309;SDS011;2168;53.576;9.980;2023-05-16T03:44:06;0.50;;;0.50;;
4309;SDS011;2168;53.576;9.980;2023-05-16T03:46:32;0.40;;;0.40;;
4309;SDS011;2168;53.576;9.980;2023-05-16T03:48:57;0.40;;;0.40;;
4309;SDS011;2168;53.576;9.980;2023-05-16T03:51:22;0.50;;;0.50;;
4309;SDS011;2168;53.576;9.980;2023-05-16T03:53:48;0.50;;;0.50;;
4309;SDS011;2168;53.576;9.980;2023-05-16T03:56:13;0.50;;;0.50;;
4309;SDS011;2168;53.576;9.980;2023-05-16T03:58:38;0.57;;;0.57;;
4309;SDS011;2168;53.576;9.980;2023-05-16T04:01:03;0.50;;;0.50;;
4309;SDS011;2168;53.576;9.980;2023-05-16T04:03:28;0.60;;;0.60;;
4309;SDS011;2168;53.576;9.980;2023-05-16T04:05:54;0.50;;;0.50;;
4309;SDS011;2168;53.576;9.980;2023-05-16T04:08:20;0.47;;;0.47;;
4309;SDS011;2168;53.576;9.980;2023-05-16T04:10:45;0.43;;;0.43;;
4309;SDS011;2168;53.576;9.980;2023-05-16T04:13:10;0.40;;;0.40;;
4309;SDS011;2168;53.576;9.980;2023-05-16T04:15:35;0.50;;;0.50;;
4309;SDS011;2168;53.576;9.980;2023-05-16T04:18:00;0.40;;;0.40;;
4309;SDS011;2168;53.576;9.980;2023-05-16T04:20:26;0.40;;;0.40;;
4309;SDS011;2168;53.576;9.980;2023-05-16T04:22:51;0.40;;;0.40;;
4309;SDS011;2168;53.576;9.980;2023-05-16T04:25:16;0.57;;;0.57;;
4309;SDS011;2168;53.576;9.980;2023-05-16T04:27:41;0.50;;;0.50;;
4309;SDS011;2168;53.576;9.980;2023-05-16T04:30:07;0.50;;;0.50;;
4309;SDS011;2168;53.576;9.980;2023-05-16T04:32:32;0.43;;;0.43;;
4309;SDS011;2168;53.576;9.980;2023-05-16T04:34:59;0.50;;;0.50;;
4309;SDS011;2168;53.576;9.980;2023-05-16T04:37:24;0.50;;;0.50;;
4309;SDS011;2168;53.576;9.980;2023-05-16T04:39:49;0.50;;;0.50;;
4309;SDS011;2168;53.576;9.980;2023-05-16T04:42:15;0.40;;;0.40;;
4309;SDS011;2168;53.576;9.980;2023-05-16T04:44:40;0.40;;;0.40;;
4309;SDS011;2168;53.576;9.980;2023-05-16T04:47:06;0.50;;;0.50;;
4309;SDS011;2168;53.576;9.980;2023-05-16T04:49:31;0.50;;;0.50;;
4309;SDS011;2168;53.576;9.980;2023-05-16T04:51:56;0.60;;;0.60;;
4309;SDS011;2168;53.576;9.980;2023-05-16T04:54:21;0.60;;;0.60;;
4309;SDS011;2168;53.576;9.980;2023-05-16T04:56:47;0.40;;;0.40;;
4309;SDS011;2168;53.576;9.980;2023-05-16T04:59:12;0.47;;;0.47;;
4309;SDS011;2168;53.576;9.980;2023-05-16T05:01:37;0.60;;;0.60;;
4309;SDS011;2168;53.576;9.980;2023-05-16T05:04:03;0.53;;;0.53;;
4309;SDS011;2168;53.576;9.980;2023-05-16T05:06:28;0.40;;;0.40;;
4309;SDS011;2168;53.576;9.980;2023-05-16T05:08:53;0.40;;;0.40;;
4309;SDS011;2168;53.576;9.980;2023-05-16T05:11:18;0.50;;;0.50;;
4309;SDS011;2168;53.576;9.980;2023-05-16T05:13:44;0.40;;;0.40;;
4309;SDS011;2168;53.576;9.980;2023-05-16T05:16:09;0.63;;;0.63;;
4309;SDS011;2168;53.576;9.980;2023-05-16T05:18:34;0.60;;;0.60;;
4309;SDS011;2168;53.576;9.980;2023-05-16T05:21:00;0.47;;;0.47;;
4309;SDS011;2168;53.576;9.980;2023-05-16T05:23:25;0.60;;;0.60;;
4309;SDS011;2168;53.576;9.980;2023-05-16T05:25:50;0.50;;;0.50;;
4309;SDS011;2168;53.576;9.980;2023-05-16T05:28:15;0.70;;;0.70;;
4309;SDS011;2168;53.576;9.980;2023-05-16T05:30:41;0.60;;;0.60;;
4309;SDS011;2168;53.576;9.980;2023-05-16T05:33:06;0.70;;;0.70;;
4309;SDS011;2168;53.576;9.980;2023-05-16T05:35:31;0.70;;;0.70;;
4309;SDS011;2168;53.576;9.980;2023-05-16T05:37:56;0.70;;;0.70;;
4309;SDS011;2168;53.576;9.980;2023-05-16T05:40:22;0.60;;;0.60;;
4309;SDS011;2168;53.576;9.980;2023-05-16T05:42:47;0.70;;;0.70;;
4309;SDS011;2168;53.576;9.980;2023-05-16T05:45:12;0.50;;;0.50;;
4309;SDS011;2168;53.576;9.980;2023-05-16T05:47:37;0.60;;;0.60;;
4309;SDS011;2168;53.576;9.980;2023-05-16T05:50:03;0.60;;;0.60;;
4309;SDS011;2168;53.576;9.980;2023-05-16T05:52:28;0.57;;;0.57;;
4309;SDS011;2168;53.576;9.980;2023-05-16T05:54:54;0.70;;;0.70;;
4309;SDS011;2168;53.576;9.980;2023-05-16T05:57:19;0.60;;;0.60;;
4309;SDS011;2168;53.576;9.980;2023-05-16T05:59:45;0.80;;;0.80;;
4309;SDS011;2168;53.576;9.980;2023-05-16T06:02:10;0.73;;;0.73;;
4309;SDS011;2168;53.576;9.980;2023-05-16T06:04:36;0.60;;;0.60;;
4309;SDS011;2168;53.576;9.980;2023-05-16T06:07:01;0.70;;;0.70;;
4309;SDS011;2168;53.576;9.980;2023-05-16T06:09:26;0.70;;;0.70;;
4309;SDS011;2168;53.576;9.980;2023-05-16T06:11:51;0.83;;;0.83;;
4309;SDS011;2168;53.576;9.980;2023-05-16T06:14:17;0.90;;;0.90;;
4309;SDS011;2168;53.576;9.980;2023-05-16T06:16:42;0.80;;;0.80;;
4309;SDS011;2168;53.576;9.980;2023-05-16T06:19:08;0.80;;;0.80;;
4309;SDS011;2168;53.576;9.980;2023-05-16T06:21:33;0.80;;;0.80;;
4309;SDS011;2168;53.576;9.980;2023-05-16T06:23:59;0.70;;;0.70;;
4309;SDS011;2168;53.576;9.980;2023-05-16T06:26:24;0.67;;;0.67;;
4309;SDS011;2168;53.576;9.980;2023-05-16T06:28:49;0.80;;;0.80;;
4309;SDS011;2168;53.576;9.980;2023-05-16T06:31:14;0.70;;;0.70;;
4309;SDS011;2168;53.576;9.980;2023-05-16T06:33:40;0.60;;;0.60;;
4309;SDS011;2168;53.576;9.980;2023-05-16T06:36:05;0.80;;;0.80;;
4309;SDS011;2168;53.576;9.980;2023-05-16T06:38:30;0.50;;;0.50;;
4309;SDS011;2168;53.576;9.980;2023-05-16T06:40:55;0.60;;;0.60;;
4309;SDS011;2168;53.576;9.980;2023-05-16T06:43:21;0.50;;;0.50;;
4309;SDS011;2168;53.576;9.980;2023-05-16T06:45:46;0.60;;;0.60;;
4309;SDS011;2168;53.576;9.980;2023-05-16T06:48:12;0.60;;;0.60;;
4309;SDS011;2168;53.576;9.980;2023-05-16T06:50:37;0.77;;;0.77;;
4309;SDS011;2168;53.576;9.980;2023-05-16T06:53:02;0.70;;;0.70;;
4309;SDS011;2168;53.576;9.980;2023-05-16T06:55:29;0.60;;;0.60;;
4309;SDS011;2168;53.576;9.980;2023-05-16T06:57:54;0.73;;;0.73;;
4309;SDS011;2168;53.576;9.980;2023-05-16T07:00:19;0.70;;;0.70;;
4309;SDS011;2168;53.576;9.980;2023-05-16T07:02:45;0.73;;;0.73;;
4309;SDS011;2168;53.576;9.980;2023-05-16T07:05:10;0.80;;;0.80;;
4309;SDS011;2168;53.576;9.980;2023-05-16T07:07:35;0.80;;;0.80;;
4309;SDS011;2168;53.576;9.980;2023-05-16T07:10:01;0.90;;;0.90;;
4309;SDS011;2168;53.576;9.980;2023-05-16T07:12:26;0.77;;;0.77;;
4309;SDS011;2168;53.576;9.980;2023-05-16T07:14:51;0.90;;;0.90;;
4309;SDS011;2168;53.576;9.980;2023-05-16T07:17:16;0.90;;;0.90;;
4309;SDS011;2168;53.576;9.980;2023-05-16T07:19:41;0.83;;;0.83;;
4309;SDS011;2168;53.576;9.980;2023-05-16T07:22:07;0.93;;;0.93;;
4309;SDS011;2168;53.576;9.980;2023-05-16T07:24:32;0.90;;;0.90;;
4309;SDS011;2168;53.576;9.980;2023-05-16T07:26:57;0.90;;;0.90;;
4309;SDS011;2168;53.576;9.980;2023-05-16T07:29:23;1.30;;;1.30;;
4309;SDS011;2168;53.576;9.980;2023-05-16T07:31:48;0.90;;;0.90;;
4309;SDS011;2168;53.576;9.980;2023-05-16T07:34:14;0.80;;;0.80;;
4309;SDS011;2168;53.576;9.980;2023-05-16T07:36:39;0.97;;;0.97;;
4309;SDS011;2168;53.576;9.980;2023-05-16T07:39:05;0.70;;;0.70;;
4309;SDS011;2168;53.576;9.980;2023-05-16T07:41:30;0.90;;;0.90;;
4309;SDS011;2168;53.576;9.980;2023-05-16T07:43:56;1.13;;;1.13;;
4309;SDS011;2168;53.576;9.980;2023-05-16T07:46:21;1.00;;;1.00;;
4309;SDS011;2168;53.576;9.980;2023-05-16T07:48:46;1.00;;;1.00;;
4309;SDS011;2168;53.576;9.980;2023-05-16T07:51:12;1.10;;;1.10;;
4309;SDS011;2168;53.576;9.980;2023-05-16T07:53:37;1.20;;;1.20;;
4309;SDS011;2168;53.576;9.980;2023-05-16T07:56:02;1.20;;;1.20;;
4309;SDS011;2168;53.576;9.980;2023-05-16T07:58:27;1.10;;;1.10;;
4309;SDS011;2168;53.576;9.980;2023-05-16T08:00:53;1.00;;;1.00;;
4309;SDS011;2168;53.576;9.980;2023-05-16T08:03:18;1.40;;;1.40;;
4309;SDS011;2168;53.576;9.980;2023-05-16T08:05:43;1.00;;;1.00;;
4309;SDS011;2168;53.576;9.980;2023-05-16T08:08:09;1.30;;;1.30;;
4309;SDS011;2168;53.576;9.980;2023-05-16T08:10:34;1.20;;;1.20;;
4309;SDS011;2168;53.576;9.980;2023-05-16T08:12:59;1.20;;;1.20;;
4309;SDS011;2168;53.576;9.980;2023-05-16T08:15:25;1.00;;;1.00;;
4309;SDS011;2168;53.576;9.980;2023-05-16T08:17:50;1.10;;;1.10;;
4309;SDS011;2168;53.576;9.980;2023-05-16T08:20:16;1.13;;;1.13;;
4309;SDS011;2168;53.576;9.980;2023-05-16T08:22:41;1.10;;;1.10;;
4309;SDS011;2168;53.576;9.980;2023-05-16T08:25:06;1.40;;;1.40;;
4309;SDS011;2168;53.576;9.980;2023-05-16T08:27:32;1.37;;;1.37;;
4309;SDS011;2168;53.576;9.980;2023-05-16T08:29:58;1.30;;;1.30;;
4309;SDS011;2168;53.576;9.980;2023-05-16T08:32:23;1.30;;;1.30;;
4309;SDS011;2168;53.576;9.980;2023-05-16T08:34:48;0.90;;;0.90;;
4309;SDS011;2168;53.576;9.980;2023-05-16T08:37:13;1.10;;;1.10;;
4309;SDS011;2168;53.576;9.980;2023-05-16T08:39:39;0.93;;;0.93;;
4309;SDS011;2168;53.576;9.980;2023-05-16T08:42:04;0.90;;;0.90;;
4309;SDS011;2168;53.576;9.980;2023-05-16T08:44:29;1.20;;;1.20;;
4309;SDS011;2168;53.576;9.980;2023-05-16T08:46:55;1.10;;;1.10;;
4309;SDS011;2168;53.576;9.980;2023-05-16T08:49:20;1.23;;;1.23;;
4309;SDS011;2168;53.576;9.980;2023-05-16T08:51:46;1.23;;;1.23;;
4309;SDS011;2168;53.576;9.980;2023-05-16T08:54:13;1.20;;;1.20;;
4309;SDS011;2168;53.576;9.980;2023-05-16T08:56:39;1.17;;;1.17;;
4309;SDS011;2168;53.576;9.980;2023-05-16T08:59:05;1.20;;;1.20;;
4309;SDS011;2168;53.576;9.980;2023-05-16T09:01:30;1.20;;;1.20;;
4309;SDS011;2168;53.576;9.980;2023-05-16T09:03:59;1.20;;;1.20;;
4309;SDS011;2168;53.576;9.980;2023-05-16T09:06:24;1.20;;;1.20;;
4309;SDS011;2168;53.576;9.980;2023-05-16T09:08:50;1.00;;;1.00;;
4309;SDS011;2168;53.576;9.980;2023-05-16T09:11:15;1.10;;;1.10;;
4309;SDS011;2168;53.576;9.980;2023-05-16T09:13:41;1.40;;;1.40;;
4309;SDS011;2168;53.576;9.980;2023-05-16T09:16:12;1.17;;;1.17;;
4309;SDS011;2168;53.576;9.980;2023-05-16T09:18:38;1.40;;;1.40;;
4309;SDS011;2168;53.576;9.980;2023-05-16T09:21:04;0.93;;;0.93;;
4309;SDS011;2168;53.576;9.980;2023-05-16T09:23:30;1.50;;;1.50;;
4309;SDS011;2168;53.576;9.980;2023-05-16T09:25:56;1.40;;;1.40;;
4309;SDS011;2168;53.576;9.980;2023-05-16T09:28:22;1.40;;;1.40;;
4309;SDS011;2168;53.576;9.980;2023-05-16T09:30:47;1.10;;;1.10;;
4309;SDS011;2168;53.576;9.980;2023-05-16T09:33:13;1.20;;;1.20;;
4309;SDS011;2168;53.576;9.980;2023-05-16T09:35:38;1.23;;;1.23;;
4309;SDS011;2168;53.576;9.980;2023-05-16T09:38:03;1.30;;;1.30;;
4309;SDS011;2168;53.576;9.980;2023-05-16T09:40:28;1.17;;;1.17;;
4309;SDS011;2168;53.576;9.980;2023-05-16T09:43:01;1.30;;;1.30;;
4309;SDS011;2168;53.576;9.980;2023-05-16T09:45:26;1.10;;;1.10;;
4309;SDS011;2168;53.576;9.980;2023-05-16T09:47:52;1.20;;;1.20;;
4309;SDS011;2168;53.576;9.980;2023-05-16T09:50:17;1.60;;;1.60;;
4309;SDS011;2168;53.576;9.980;2023-05-16T09:52:42;1.60;;;1.60;;
4309;SDS011;2168;53.576;9.980;2023-05-16T09:55:08;1.37;;;1.37;;
4309;SDS011;2168;53.576;9.980;2023-05-16T09:57:36;1.50;;;1.50;;
4309;SDS011;2168;53.576;9.980;2023-05-16T10:00:01;1.50;;;1.50;;
4309;SDS011;2168;53.576;9.980;2023-05-16T10:02:30;1.50;;;1.50;;
4309;SDS011;2168;53.576;9.980;2023-05-16T10:04:55;1.20;;;1.20;;
4309;SDS011;2168;53.576;9.980;2023-05-16T10:07:21;1.40;;;1.40;;
4309;SDS011;2168;53.576;9.980;2023-05-16T10:09:46;1.40;;;1.40;;
4309;SDS011;2168;53.576;9.980;2023-05-16T10:12:12;1.43;;;1.43;;
4309;SDS011;2168;53.576;9.980;2023-05-16T10:14:40;1.50;;;1.50;;
4309;SDS011;2168;53.576;9.980;2023-05-16T10:17:06;1.40;;;1.40;;
4309;SDS011;2168;53.576;9.980;2023-05-16T10:19:33;1.33;;;1.33;;
4309;SDS011;2168;53.576;9.980;2023-05-16T10:21:59;1.47;;;1.47;;
4309;SDS011;2168;53.576;9.980;2023-05-16T10:24:39;1.30;;;1.30;;
4309;SDS011;2168;53.576;9.980;2023-05-16T10:27:06;1.50;;;1.50;;
4309;SDS011;2168;53.576;9.980;2023-05-16T10:29:33;1.60;;;1.60;;
4309;SDS011;2168;53.576;9.980;2023-05-16T10:31:58;1.90;;;1.90;;
4309;SDS011;2168;53.576;9.980;2023-05-16T10:34:24;1.53;;;1.53;;
4309;SDS011;2168;53.576;9.980;2023-05-16T10:36:49;1.70;;;1.70;;
4309;SDS011;2168;53.576;9.980;2023-05-16T10:39:15;1.80;;;1.80;;
4309;SDS011;2168;53.576;9.980;2023-05-16T10:41:40;1.60;;;1.60;;
4309;SDS011;2168;53.576;9.980;2023-05-16T10:44:11;1.47;;;1.47;;
4309;SDS011;2168;53.576;9.980;2023-05-16T10:46:36;1.70;;;1.70;;
4309;SDS011;2168;53.576;9.980;2023-05-16T10:49:18;1.77;;;1.77;;
4309;SDS011;2168;53.576;9.980;2023-05-16T10:51:43;1.47;;;1.47;;
4309;SDS011;2168;53.576;9.980;2023-05-16T10:54:09;1.77;;;1.77;;
4309;SDS011;2168;53.576;9.980;2023-05-16T10:56:35;1.40;;;1.40;;
4309;SDS011;2168;53.576;9.980;2023-05-16T10:59:00;1.43;;;1.43;;
4309;SDS011;2168;53.576;9.980;2023-05-16T11:01:30;1.60;;;1.60;;
4309;SDS011;2168;53.576;9.980;2023-05-16T11:14:06;1.80;;;1.80;;
4309;SDS011;2168;53.576;9.980;2023-05-16T11:16:32;1.80;;;1.80;;
4309;SDS011;2168;53.576;9.980;2023-05-16T11:19:04;1.50;;;1.50;;
4309;SDS011;2168;53.576;9.980;2023-05-16T11:24:27;1.83;;;1.83;;
4309;SDS011;2168;53.576;9.980;2023-05-16T11:26:52;1.70;;;1.70;;
4309;SDS011;2168;53.576;9.980;2023-05-16T11:29:18;1.70;;;1.70;;
4309;SDS011;2168;53.576;9.980;2023-05-16T11:31:43;1.70;;;1.70;;
4309;SDS011;2168;53.576;9.980;2023-05-16T11:34:09;1.70;;;1.70;;
4309;SDS011;2168;53.576;9.980;2023-05-16T11:36:34;1.53;;;1.53;;
4309;SDS011;2168;53.576;9.980;2023-05-16T11:39:04;1.90;;;1.90;;
4309;SDS011;2168;53.576;9.980;2023-05-16T11:41:29;1.80;;;1.80;;
4309;SDS011;2168;53.576;9.980;2023-05-16T11:43:56;1.83;;;1.83;;
4309;SDS011;2168;53.576;9.980;2023-05-16T11:46:21;1.70;;;1.70;;
4309;SDS011;2168;53.576;9.980;2023-05-16T11:48:47;1.60;;;1.60;;
4309;SDS011;2168;53.576;9.980;2023-05-16T11:51:13;1.80;;;1.80;;
4309;SDS011;2168;53.576;9.980;2023-05-16T11:53:42;1.60;;;1.60;;
4309;SDS011;2168;53.576;9.980;2023-05-16T11:56:08;2.10;;;2.10;;
4309;SDS011;2168;53.576;9.980;2023-05-16T11:58:34;1.90;;;1.90;;
4309;SDS011;2168;53.576;9.980;2023-05-16T12:00:59;1.80;;;1.80;;
4309;SDS011;2168;53.576;9.980;2023-05-16T12:03:28;1.77;;;1.77;;
4309;SDS011;2168;53.576;9.980;2023-05-16T12:05:57;1.73;;;1.73;;
4309;SDS011;2168;53.576;9.980;2023-05-16T12:08:22;1.90;;;1.90;;
4309;SDS011;2168;53.576;9.980;2023-05-16T12:10:49;1.90;;;1.90;;
4309;SDS011;2168;53.576;9.980;2023-05-16T12:13:15;1.80;;;1.80;;
4309;SDS011;2168;53.576;9.980;2023-05-16T12:15:41;1.57;;;1.57;;
4309;SDS011;2168;53.576;9.980;2023-05-16T12:18:07;1.70;;;1.70;;
4309;SDS011;2168;53.576;9.980;2023-05-16T12:20:32;1.73;;;1.73;;
4309;SDS011;2168;53.576;9.980;2023-05-16T12:22:57;1.90;;;1.90;;
4309;SDS011;2168;53.576;9.980;2023-05-16T12:25:27;1.70;;;1.70;;
4309;SDS011;2168;53.576;9.980;2023-05-16T12:27:58;1.60;;;1.60;;
4309;SDS011;2168;53.576;9.980;2023-05-16T12:30:24;1.90;;;1.90;;
4309;SDS011;2168;53.576;9.980;2023-05-16T12:35:22;1.70;;;1.70;;
4309;SDS011;2168;53.576;9.980;2023-05-16T12:37:48;1.77;;;1.77;;
4309;SDS011;2168;53.576;9.980;2023-05-16T12:40:13;1.70;;;1.70;;
4309;SDS011;2168;53.576;9.980;2023-05-16T12:42:39;1.90;;;1.90;;
4309;SDS011;2168;53.576;9.980;2023-05-16T12:45:04;1.70;;;1.70;;
4309;SDS011;2168;53.576;9.980;2023-05-16T12:47:37;1.53;;;1.53;;
4309;SDS011;2168;53.576;9.980;2023-05-16T12:50:02;2.20;;;2.20;;
4309;SDS011;2168;53.576;9.980;2023-05-16T12:52:32;1.80;;;1.80;;
4309;SDS011;2168;53.576;9.980;2023-05-16T12:54:58;2.10;;;2.10;;
4309;SDS011;2168;53.576;9.980;2023-05-16T12:57:23;1.73;;;1.73;;
4309;SDS011;2168;53.576;9.980;2023-05-16T12:59:48;1.87;;;1.87;;
4309;SDS011;2168;53.576;9.980;2023-05-16T13:02:14;1.60;;;1.60;;
4309;SDS011;2168;53.576;9.980;2023-05-16T13:04:39;1.50;;;1.50;;
4309;SDS011;2168;53.576;9.980;2023-05-16T13:07:04;1.90;;;1.90;;
4309;SDS011;2168;53.576;9.980;2023-05-16T13:09:29;2.00;;;2.00;;
4309;SDS011;2168;53.576;9.980;2023-05-16T13:11:54;1.70;;;1.70;;
4309;SDS011;2168;53.576;9.980;2023-05-16T13:14:20;1.60;;;1.60;;
4309;SDS011;2168;53.576;9.980;2023-05-16T13:16:45;1.70;;;1.70;;
4309;SDS011;2168;53.576;9.980;2023-05-16T13:19:10;1.60;;;1.60;;
4309;SDS011;2168;53.576;9.980;2023-05-16T13:21:36;1.63;;;1.63;;
4309;SDS011;2168;53.576;9.980;2023-05-16T13:24:01;1.70;;;1.70;;
4309;SDS011;2168;53.576;9.980;2023-05-16T13:26:26;1.90;;;1.90;;
4309;SDS011;2168;53.576;9.980;2023-05-16T13:28:51;1.67;;;1.67;;
4309;SDS011;2168;53.576;9.980;2023-05-16T13:31:18;1.70;;;1.70;;
4309;SDS011;2168;53.576;9.980;2023-05-16T13:33:44;1.70;;;1.70;;
4309;SDS011;2168;53.576;9.980;2023-05-16T13:36:09;1.67;;;1.67;;
4309;SDS011;2168;53.576;9.980;2023-05-16T13:38:34;1.87;;;1.87;;
4309;SDS011;2168;53.576;9.980;2023-05-16T13:41:00;1.60;;;1.60;;
4309;SDS011;2168;53.576;9.980;2023-05-16T13:43:25;2.00;;;2.00;;
4309;SDS011;2168;53.576;9.980;2023-05-16T13:45:50;1.97;;;1.97;;
4309;SDS011;2168;53.576;9.980;2023-05-16T13:48:16;1.80;;;1.80;;
4309;SDS011;2168;53.576;9.980;2023-05-16T13:50:41;1.83;;;1.83;;
4309;SDS011;2168;53.576;9.980;2023-05-16T13:53:06;1.90;;;1.90;;
4309;SDS011;2168;53.576;9.980;2023-05-16T13:55:32;2.03;;;2.03;;
4309;SDS011;2168;53.576;9.980;2023-05-16T13:57:57;2.07;;;2.07;;
4309;SDS011;2168;53.576;9.980;2023-05-16T14:00:22;1.70;;;1.70;;
4309;SDS011;2168;53.576;9.980;2023-05-16T14:02:48;1.97;;;1.97;;
4309;SDS011;2168;53.576;9.980;2023-05-16T14:05:13;1.87;;;1.87;;
4309;SDS011;2168;53.576;9.980;2023-05-16T14:07:38;1.60;;;1.60;;
4309;SDS011;2168;53.576;9.980;2023-05-16T14:10:03;1.40;;;1.40;;
4309;SDS011;2168;53.576;9.980;2023-05-16T14:12:30;1.50;;;1.50;;
4309;SDS011;2168;53.576;9.980;2023-05-16T14:14:56;1.80;;;1.80;;
4309;SDS011;2168;53.576;9.980;2023-05-16T14:17:21;1.70;;;1.70;;
4309;SDS011;2168;53.576;9.980;2023-05-16T14:19:46;1.80;;;1.80;;
4309;SDS011;2168;53.576;9.980;2023-05-16T14:22:11;1.80;;;1.80;;
4309;SDS011;2168;53.576;9.980;2023-05-16T14:24:37;1.53;;;1.53;;
4309;SDS011;2168;53.576;9.980;2023-05-16T14:27:02;1.93;;;1.93;;
4309;SDS011;2168;53.576;9.980;2023-05-16T14:29:27;1.90;;;1.90;;
4309;SDS011;2168;53.576;9.980;2023-05-16T14:31:52;1.87;;;1.87;;
4309;SDS011;2168;53.576;9.980;2023-05-16T14:34:18;2.20;;;2.20;;
4309;SDS011;2168;53.576;9.980;2023-05-16T14:36:43;2.60;;;2.60;;
4309;SDS011;2168;53.576;9.980;2023-05-16T14:39:08;2.37;;;2.37;;
4309;SDS011;2168;53.576;9.980;2023-05-16T14:41:33;1.90;;;1.90;;
4309;SDS011;2168;53.576;9.980;2023-05-16T14:43:59;2.40;;;2.40;;
4309;SDS011;2168;53.576;9.980;2023-05-16T14:46:24;2.03;;;2.03;;
4309;SDS011;2168;53.576;9.980;2023-05-16T14:48:49;2.00;;;2.00;;
4309;SDS011;2168;53.576;9.980;2023-05-16T14:51:14;1.90;;;1.90;;
4309;SDS011;2168;53.576;9.980;2023-05-16T14:53:40;1.83;;;1.83;;
4309;SDS011;2168;53.576;9.980;2023-05-16T14:56:05;2.00;;;2.00;;
4309;SDS011;2168;53.576;9.980;2023-05-16T14:58:30;2.10;;;2.10;;
4309;SDS011;2168;53.576;9.980;2023-05-16T15:00:56;1.90;;;1.90;;
4309;SDS011;2168;53.576;9.980;2023-05-16T15:03:21;1.83;;;1.83;;
4309;SDS011;2168;53.576;9.980;2023-05-16T15:05:47;1.80;;;1.80;;
4309;SDS011;2168;53.576;9.980;2023-05-16T15:08:12;1.90;;;1.90;;
4309;SDS011;2168;53.576;9.980;2023-05-16T15:10:37;1.60;;;1.60;;
4309;SDS011;2168;53.576;9.980;2023-05-16T15:13:02;1.80;;;1.80;;
4309;SDS011;2168;53.576;9.980;2023-05-16T15:15:28;1.60;;;1.60;;
4309;SDS011;2168;53.576;9.980;2023-05-16T15:17:53;1.80;;;1.80;;
4309;SDS011;2168;53.576;9.980;2023-05-16T15:20:18;1.90;;;1.90;;
4309;SDS011;2168;53.576;9.980;2023-05-16T15:22:44;1.60;;;1.60;;
4309;SDS011;2168;53.576;9.980;2023-05-16T15:25:09;1.67;;;1.67;;
4309;SDS011;2168;53.576;9.980;2023-05-16T15:27:34;1.63;;;1.63;;
4309;SDS011;2168;53.576;9.980;2023-05-16T15:30:00;1.80;;;1.80;;
4309;SDS011;2168;53.576;9.980;2023-05-16T15:32:25;1.67;;;1.67;;
4309;SDS011;2168;53.576;9.980;2023-05-16T15:34:50;1.70;;;1.70;;